createdAt,value
2022-12-03T00:01:22.186Z,3.70
2022-12-03T00:03:50.535Z,3.64
2022-12-03T00:06:20.830Z,3.60
2022-12-03T00:08:49.189Z,3.56
2022-12-03T00:11:17.464Z,3.56
2022-12-03T00:13:47.541Z,3.49
2022-12-03T00:16:16.029Z,3.47
2022-12-03T00:18:44.000Z,3.53
2022-12-03T00:21:12.238Z,3.60
2022-12-03T00:23:42.481Z,3.59
2022-12-03T00:26:13.574Z,3.56
2022-12-03T00:28:42.480Z,3.62
2022-12-03T00:31:12.211Z,3.63
2022-12-03T00:33:40.489Z,3.63
2022-12-03T00:36:11.468Z,3.63
2022-12-03T00:38:39.734Z,3.62
2022-12-03T00:41:08.068Z,3.60
2022-12-03T00:43:36.780Z,3.60
2022-12-03T00:46:05.348Z,3.51
2022-12-03T00:48:35.283Z,3.56
2022-12-03T00:51:03.769Z,3.55
2022-12-03T00:53:31.916Z,3.53
2022-12-03T00:56:01.972Z,3.52
2022-12-03T00:58:30.070Z,3.50
2022-12-03T01:00:59.121Z,3.45
2022-12-03T01:03:27.609Z,3.40
2022-12-03T01:05:57.662Z,3.45
2022-12-03T01:08:25.802Z,3.56
2022-12-03T01:11:27.381Z,3.56
2022-12-03T01:14:07.233Z,3.59
2022-12-03T01:16:35.881Z,3.49
2022-12-03T01:19:04.781Z,3.52
2022-12-03T01:21:34.502Z,3.54
2022-12-03T01:24:03.297Z,3.55
2022-12-03T01:26:31.287Z,3.58
2022-12-03T01:28:59.374Z,3.59
2022-12-03T01:31:44.851Z,3.63
2022-12-03T01:34:13.085Z,3.66
2022-12-03T01:36:44.951Z,3.69
2022-12-03T01:39:13.532Z,3.58
2022-12-03T01:41:42.231Z,3.57
2022-12-03T01:44:18.393Z,3.62
2022-12-03T01:46:47.970Z,3.64
2022-12-03T01:49:20.473Z,3.60
2022-12-03T01:51:51.077Z,3.56
2022-12-03T01:54:22.433Z,3.52
2022-12-03T01:56:50.930Z,3.56
2022-12-03T01:59:21.225Z,3.58
2022-12-03T02:01:49.261Z,3.67
2022-12-03T02:04:21.956Z,3.75
2022-12-03T02:06:51.775Z,3.79
2022-12-03T02:09:21.195Z,3.76
2022-12-03T02:11:51.871Z,3.67
2022-12-03T02:14:23.399Z,3.67
2022-12-03T02:16:51.482Z,3.63
2022-12-03T02:19:28.496Z,3.61
2022-12-03T02:22:05.162Z,3.66
2022-12-03T02:24:43.345Z,3.67
2022-12-03T02:27:13.239Z,3.67
2022-12-03T02:29:41.673Z,3.68
2022-12-03T02:32:09.902Z,3.63
2022-12-03T02:34:40.555Z,3.64
2022-12-03T02:37:16.601Z,3.66
2022-12-03T02:39:49.280Z,3.66
2022-12-03T02:42:38.960Z,3.63
2022-12-03T02:45:10.712Z,3.65
2022-12-03T02:47:43.526Z,3.73
2022-12-03T02:50:15.486Z,3.72
2022-12-03T02:52:47.199Z,3.70
2022-12-03T02:55:18.876Z,3.69
2022-12-03T02:57:51.055Z,3.66
2022-12-03T03:00:20.105Z,3.64
2022-12-03T03:02:48.871Z,3.65
2022-12-03T03:05:18.111Z,3.65
2022-12-03T03:07:46.772Z,3.62
2022-12-03T03:10:16.990Z,3.53
2022-12-03T03:12:45.175Z,3.54
2022-12-03T03:15:15.429Z,3.56
2022-12-03T03:17:44.434Z,3.59
2022-12-03T03:20:13.232Z,3.51
2022-12-03T03:22:43.829Z,3.51
2022-12-03T03:25:16.424Z,3.53
2022-12-03T03:27:46.029Z,3.56
2022-12-03T03:30:16.202Z,3.54
2022-12-03T03:32:44.714Z,3.50
2022-12-03T03:35:14.775Z,3.56
2022-12-03T03:37:43.625Z,3.49
2022-12-03T03:40:42.632Z,3.53
2022-12-03T03:43:47.093Z,3.58
2022-12-03T03:46:25.274Z,3.63
2022-12-03T03:48:53.744Z,3.60
2022-12-03T03:51:22.318Z,3.53
2022-12-03T03:53:51.674Z,3.52
2022-12-03T03:56:21.856Z,3.43
2022-12-03T03:58:50.138Z,3.47
2022-12-03T04:01:20.196Z,3.53
2022-12-03T04:03:48.512Z,3.52
2022-12-03T04:06:16.894Z,3.55
2022-12-03T04:08:44.868Z,3.55
2022-12-03T04:11:30.203Z,3.51
2022-12-03T04:13:58.228Z,3.56
2022-12-03T04:16:28.004Z,3.50
2022-12-03T04:18:56.094Z,3.54
2022-12-03T04:21:42.898Z,3.52
2022-12-03T04:24:12.640Z,3.43
2022-12-03T04:26:58.289Z,3.38
2022-12-03T04:29:26.500Z,3.29
2022-12-03T04:32:12.890Z,3.31
2022-12-03T04:34:58.124Z,3.34
2022-12-03T04:37:26.294Z,3.40
2022-12-03T04:39:54.570Z,3.42
2022-12-03T04:42:22.996Z,3.44
2022-12-03T04:44:51.415Z,3.44
2022-12-03T04:47:22.555Z,3.45
2022-12-03T04:49:52.870Z,3.41
2022-12-03T04:52:22.612Z,3.28
2022-12-03T04:54:52.477Z,3.20
2022-12-03T04:57:20.731Z,3.21
2022-12-03T04:59:48.812Z,3.28
2022-12-03T05:02:16.968Z,3.27
2022-12-03T05:04:46.622Z,3.32
2022-12-03T05:07:14.775Z,3.32
2022-12-03T05:09:43.026Z,3.28
2022-12-03T05:12:11.198Z,3.23
2022-12-03T05:14:39.110Z,3.18
2022-12-03T05:17:07.426Z,3.22
2022-12-03T05:19:53.054Z,3.29
2022-12-03T05:22:22.697Z,3.34
2022-12-03T05:24:50.992Z,3.23
2022-12-03T05:27:23.957Z,3.24
2022-12-03T05:29:52.989Z,3.25
2022-12-03T05:32:21.572Z,3.31
2022-12-03T05:34:50.111Z,3.32
2022-12-03T05:37:18.605Z,3.30
2022-12-03T05:39:48.519Z,3.29
2022-12-03T05:42:34.003Z,3.31
2022-12-03T05:45:02.407Z,3.30
2022-12-03T05:47:30.779Z,3.22
2022-12-03T05:49:59.177Z,3.27
2022-12-03T05:52:27.822Z,3.26
2022-12-03T05:54:57.510Z,3.31
2022-12-03T05:57:26.016Z,3.27
2022-12-03T05:59:55.650Z,3.27
2022-12-03T06:02:25.390Z,3.19
2022-12-03T06:04:53.938Z,3.20
2022-12-03T06:07:26.859Z,3.18
2022-12-03T06:09:56.805Z,3.18
2022-12-03T06:12:25.024Z,3.27
2022-12-03T06:14:55.389Z,3.27
2022-12-03T06:17:26.017Z,3.21
2022-12-03T06:19:54.313Z,3.21
2022-12-03T06:22:22.365Z,3.24
2022-12-03T06:24:52.311Z,3.22
2022-12-03T06:27:23.308Z,3.22
2022-12-03T06:29:51.709Z,3.24
2022-12-03T06:32:20.231Z,3.22
2022-12-03T06:34:48.516Z,3.10
2022-12-03T06:37:16.625Z,3.11
2022-12-03T06:39:44.663Z,3.21
2022-12-03T06:42:12.760Z,3.18
2022-12-03T06:44:42.499Z,3.20
2022-12-03T06:47:10.568Z,3.22
2022-12-03T06:49:38.662Z,3.17
2022-12-03T06:52:07.170Z,3.20
2022-12-03T06:54:35.342Z,3.25
2022-12-03T06:57:04.534Z,3.34
2022-12-03T06:59:36.539Z,3.31
2022-12-03T07:02:06.408Z,3.25
2022-12-03T07:04:34.695Z,3.21
2022-12-03T07:07:06.048Z,3.21
2022-12-03T07:09:34.693Z,3.25
2022-12-03T07:12:04.923Z,3.23
2022-12-03T07:14:35.108Z,3.18
2022-12-03T07:17:05.899Z,3.07
2022-12-03T07:19:37.246Z,3.06
2022-12-03T07:22:06.234Z,3.14
2022-12-03T07:24:36.628Z,3.17
2022-12-03T07:27:05.372Z,3.24
2022-12-03T07:29:33.908Z,3.21
2022-12-03T07:32:02.771Z,3.20
2022-12-03T07:34:31.020Z,3.16
2022-12-03T07:37:03.952Z,3.06
2022-12-03T07:39:32.079Z,3.07
2022-12-03T07:41:59.956Z,3.09
2022-12-03T07:44:31.975Z,3.10
2022-12-03T07:47:00.191Z,3.06
2022-12-03T07:49:31.287Z,3.05
2022-12-03T07:51:59.254Z,2.94
2022-12-03T07:54:28.631Z,3.01
2022-12-03T07:57:01.104Z,3.09
2022-12-03T07:59:30.217Z,3.20
2022-12-03T08:01:58.288Z,3.26
2022-12-03T08:04:26.477Z,3.22
2022-12-03T08:06:54.431Z,3.25
2022-12-03T08:09:22.698Z,3.26
2022-12-03T08:11:52.007Z,3.31
2022-12-03T08:14:21.743Z,3.33
2022-12-03T08:16:49.803Z,3.13
2022-12-03T08:19:19.337Z,3.09
2022-12-03T08:21:47.528Z,3.17
2022-12-03T08:24:17.626Z,3.14
2022-12-03T08:26:47.196Z,3.14
2022-12-03T08:29:18.692Z,3.11
2022-12-03T08:31:52.076Z,3.10
2022-12-03T08:34:23.397Z,3.14
2022-12-03T08:36:57.184Z,3.19
2022-12-03T08:39:34.428Z,3.23
2022-12-03T08:42:30.757Z,3.33
2022-12-03T08:45:11.187Z,3.38
2022-12-03T08:47:40.344Z,3.35
2022-12-03T08:50:27.406Z,3.40
2022-12-03T08:53:03.068Z,3.43
2022-12-03T08:55:36.662Z,3.46
2022-12-03T08:58:22.825Z,3.44
2022-12-03T09:00:59.643Z,3.44
2022-12-03T09:03:32.347Z,3.46
2022-12-03T09:06:00.337Z,3.54
2022-12-03T09:08:28.635Z,3.54
2022-12-03T09:10:56.822Z,3.59
2022-12-03T09:13:24.983Z,3.64
2022-12-03T09:15:54.301Z,3.72
2022-12-03T09:18:22.577Z,3.78
2022-12-03T09:20:50.643Z,3.75
2022-12-03T09:23:21.293Z,3.72
2022-12-03T09:25:49.601Z,3.72
2022-12-03T09:28:21.718Z,3.72
2022-12-03T09:30:50.133Z,3.63
2022-12-03T09:33:20.551Z,3.60
2022-12-03T09:35:49.053Z,3.63
2022-12-03T09:38:17.673Z,3.63
2022-12-03T09:40:46.039Z,3.66
2022-12-03T09:43:15.197Z,3.68
2022-12-03T09:45:46.506Z,3.71
2022-12-03T09:48:16.628Z,3.77
2022-12-03T09:50:51.047Z,3.77
2022-12-03T09:53:28.887Z,3.77
2022-12-03T09:56:05.568Z,3.78
2022-12-03T09:58:35.227Z,3.74
2022-12-03T10:01:12.458Z,3.72
2022-12-03T10:03:45.673Z,3.63
2022-12-03T10:06:19.587Z,3.71
2022-12-03T10:08:49.974Z,3.69
2022-12-03T10:11:19.172Z,3.72
2022-12-03T10:13:48.443Z,3.75
2022-12-03T10:16:21.149Z,3.75
2022-12-03T10:18:54.277Z,3.70
2022-12-03T10:21:26.813Z,3.70
2022-12-03T10:24:09.331Z,3.75
2022-12-03T10:26:41.206Z,3.78
2022-12-03T10:29:14.076Z,3.82
2022-12-03T10:31:42.080Z,3.86
2022-12-03T10:34:10.778Z,3.89
2022-12-03T10:36:40.431Z,3.76
2022-12-03T10:39:11.782Z,3.77
2022-12-03T10:41:40.804Z,3.77
2022-12-03T10:44:20.673Z,3.74
2022-12-03T10:47:07.134Z,3.75
2022-12-03T10:49:35.309Z,3.67
2022-12-03T10:52:08.305Z,3.70
2022-12-03T10:54:36.655Z,3.75
2022-12-03T10:57:04.885Z,3.71
2022-12-03T10:59:35.195Z,3.75
2022-12-03T11:02:05.216Z,3.74
2022-12-03T11:04:35.692Z,3.69
2022-12-03T11:07:15.397Z,3.71
2022-12-03T11:09:45.510Z,3.75
2022-12-03T11:12:23.600Z,3.79
2022-12-03T11:15:07.380Z,3.89
2022-12-03T11:17:44.162Z,4.08
2022-12-03T11:20:34.586Z,4.10
2022-12-03T11:23:04.194Z,4.11
2022-12-03T11:25:56.089Z,4.14
2022-12-03T11:28:53.245Z,4.09
2022-12-03T11:31:42.629Z,4.07
2022-12-03T11:34:50.747Z,4.07
2022-12-03T11:37:26.278Z,3.99
2022-12-03T11:40:26.379Z,3.92
2022-12-03T11:42:54.222Z,3.91
2022-12-03T11:45:31.528Z,3.88
2022-12-03T11:48:18.812Z,3.90
2022-12-03T11:50:52.217Z,3.79
2022-12-03T11:53:22.894Z,3.77
2022-12-03T11:56:06.120Z,3.83
2022-12-03T11:58:35.996Z,3.89
2022-12-03T12:01:06.378Z,3.83
2022-12-03T12:03:36.351Z,3.77
2022-12-03T12:06:06.877Z,3.78
2022-12-03T12:08:35.609Z,3.81
2022-12-03T12:11:16.939Z,3.84
2022-12-03T12:13:55.713Z,3.88
2022-12-03T12:16:50.614Z,3.97
2022-12-03T12:19:36.437Z,3.97
2022-12-03T12:22:32.044Z,4.03
2022-12-03T12:25:01.566Z,3.94
2022-12-03T12:27:37.440Z,3.88
2022-12-03T12:30:08.003Z,3.91
2022-12-03T12:32:42.942Z,3.94
2022-12-03T12:35:17.327Z,3.93
2022-12-03T12:37:55.042Z,3.88
2022-12-03T12:40:28.491Z,3.98
2022-12-03T12:42:59.348Z,4.00
2022-12-03T12:45:29.066Z,3.95
2022-12-03T12:48:06.314Z,3.93
2022-12-03T12:50:34.382Z,3.84
2022-12-03T12:53:09.730Z,3.82
2022-12-03T12:55:38.799Z,3.89
2022-12-03T12:58:14.888Z,3.92
2022-12-03T13:00:43.707Z,3.93
2022-12-03T13:03:13.318Z,3.92
2022-12-03T13:05:44.329Z,3.91
2022-12-03T13:08:22.847Z,3.89
2022-12-03T13:10:51.711Z,3.84
2022-12-03T13:13:31.139Z,3.89
2022-12-03T13:16:01.737Z,3.97
2022-12-03T13:18:46.078Z,3.99
2022-12-03T13:21:23.180Z,3.97
2022-12-03T13:23:52.971Z,4.01
2022-12-03T13:26:36.137Z,3.97
2022-12-03T13:29:14.936Z,3.85
2022-12-03T13:31:46.704Z,3.83
2022-12-03T13:34:20.374Z,3.79
2022-12-03T13:36:55.274Z,3.81
2022-12-03T13:39:30.565Z,3.85
2022-12-03T13:42:17.877Z,3.79
2022-12-03T13:44:49.917Z,3.78
2022-12-03T13:47:21.881Z,3.79
2022-12-03T13:49:54.577Z,3.81
2022-12-03T13:52:25.095Z,3.90
2022-12-03T13:54:56.009Z,3.92
2022-12-03T13:57:24.774Z,3.88
2022-12-03T13:59:57.975Z,3.89
2022-12-03T14:02:26.040Z,3.87
2022-12-03T14:05:00.013Z,3.88
2022-12-03T14:07:53.822Z,3.77
2022-12-03T14:10:22.157Z,3.71
2022-12-03T14:12:58.538Z,3.73
2022-12-03T14:15:27.731Z,3.62
2022-12-03T14:17:55.532Z,3.64
2022-12-03T14:20:23.429Z,3.55
2022-12-03T14:22:55.138Z,3.57
2022-12-03T14:25:27.007Z,3.67
2022-12-03T14:27:54.788Z,3.65
2022-12-03T14:30:22.539Z,3.65
2022-12-03T14:32:51.768Z,3.66
2022-12-03T14:35:19.903Z,3.67
2022-12-03T14:37:47.747Z,3.52
2022-12-03T14:40:21.263Z,3.55
2022-12-03T14:42:49.587Z,3.45
2022-12-03T14:45:17.501Z,3.42
2022-12-03T14:47:45.376Z,3.43
2022-12-03T14:50:14.731Z,3.51
2022-12-03T14:52:43.318Z,3.49
2022-12-03T14:55:11.321Z,3.35
2022-12-03T14:57:39.139Z,3.40
2022-12-03T15:00:08.537Z,3.44
2022-12-03T15:02:36.385Z,3.42
2022-12-03T15:05:04.802Z,3.26
2022-12-03T15:07:34.665Z,3.33
2022-12-03T15:10:02.653Z,3.32
2022-12-03T15:12:31.531Z,3.36
2022-12-03T15:14:59.352Z,3.37
2022-12-03T15:17:31.638Z,3.34
2022-12-03T15:20:00.257Z,3.33
2022-12-03T15:22:28.071Z,3.32
2022-12-03T15:24:57.299Z,3.38
2022-12-03T15:27:25.935Z,3.41
2022-12-03T15:29:53.876Z,3.44
2022-12-03T15:32:29.216Z,3.45
2022-12-03T15:34:57.188Z,3.37
2022-12-03T15:37:27.554Z,3.44
2022-12-03T15:39:55.905Z,3.40
2022-12-03T15:42:25.301Z,3.37
2022-12-03T15:44:53.100Z,3.40
2022-12-03T15:47:20.947Z,3.37
2022-12-03T15:49:48.951Z,3.29
2022-12-03T15:52:16.822Z,3.31
2022-12-03T15:54:45.771Z,3.33
2022-12-03T15:57:13.786Z,3.28
2022-12-03T16:00:04.664Z,3.31
2022-12-03T16:03:11.277Z,3.25
2022-12-03T16:05:56.844Z,3.35
2022-12-03T16:08:24.694Z,3.34
2022-12-03T16:10:52.620Z,3.32
2022-12-03T16:13:20.702Z,3.25
2022-12-03T16:15:50.238Z,3.23
2022-12-03T16:18:18.083Z,3.23
2022-12-03T16:20:45.999Z,3.27
2022-12-03T16:23:13.947Z,3.29
2022-12-03T16:25:41.793Z,3.35
2022-12-03T16:28:10.945Z,3.44
2022-12-03T16:30:41.320Z,3.48
2022-12-03T16:33:10.697Z,3.49
2022-12-03T16:35:38.514Z,3.50
2022-12-03T16:38:06.396Z,3.49
2022-12-03T16:40:34.275Z,3.40
2022-12-03T16:43:03.456Z,3.35
2022-12-03T16:45:51.539Z,3.38
2022-12-03T16:48:21.008Z,3.31
2022-12-03T16:50:49.207Z,3.22
2022-12-03T16:53:18.353Z,3.22
2022-12-03T16:55:46.075Z,3.24
2022-12-03T16:58:13.831Z,3.25
2022-12-03T17:00:41.552Z,3.25
2022-12-03T17:03:09.897Z,3.22
2022-12-03T17:05:39.167Z,3.25
2022-12-03T17:08:07.153Z,3.29
2022-12-03T17:10:35.065Z,3.33
2022-12-03T17:13:10.833Z,3.38
2022-12-03T17:15:39.078Z,3.38
2022-12-03T17:18:07.773Z,3.39
2022-12-03T17:20:35.658Z,3.41
2022-12-03T17:23:05.990Z,3.41
2022-12-03T17:25:34.911Z,3.40
2022-12-03T17:28:02.871Z,3.44
2022-12-03T17:30:30.709Z,3.46
2022-12-03T17:32:58.486Z,3.45
2022-12-03T17:35:26.799Z,3.32
2022-12-03T17:37:54.583Z,3.19
2022-12-03T17:40:24.590Z,3.22
2022-12-03T17:42:52.338Z,3.26
2022-12-03T17:45:20.144Z,3.31
2022-12-03T17:47:47.944Z,3.30
2022-12-03T17:50:17.142Z,3.30
2022-12-03T17:52:45.363Z,3.37
2022-12-03T17:55:21.582Z,3.39
2022-12-03T17:57:56.964Z,3.35
2022-12-03T18:00:27.655Z,3.28
2022-12-03T18:02:57.151Z,3.21
2022-12-03T18:05:27.597Z,3.24
2022-12-03T18:07:55.533Z,3.27
2022-12-03T18:10:33.856Z,3.23
2022-12-03T18:13:15.034Z,3.09
2022-12-03T18:15:43.024Z,3.16
2022-12-03T18:18:15.752Z,3.19
2022-12-03T18:20:43.674Z,3.19
2022-12-03T18:23:11.741Z,3.10
2022-12-03T18:25:39.916Z,3.18
2022-12-03T18:28:09.552Z,3.28
2022-12-03T18:30:52.704Z,3.33
2022-12-03T18:33:21.481Z,3.20
2022-12-03T18:35:49.544Z,3.25
2022-12-03T18:38:22.570Z,3.32
2022-12-03T18:40:52.120Z,3.37
2022-12-03T18:43:21.221Z,3.31
2022-12-03T18:45:49.074Z,3.23
2022-12-03T18:48:20.963Z,3.20
2022-12-03T18:50:49.041Z,3.23
2022-12-03T18:53:23.533Z,3.07
2022-12-03T18:55:51.484Z,3.12
2022-12-03T18:58:19.382Z,3.18
2022-12-03T19:00:48.702Z,3.22
2022-12-03T19:03:16.627Z,3.23
2022-12-03T19:05:44.562Z,3.28
2022-12-03T19:08:14.913Z,3.31
2022-12-03T19:10:43.371Z,3.27
2022-12-03T19:13:11.443Z,3.28
2022-12-03T19:15:39.744Z,3.22
2022-12-03T19:18:15.438Z,3.19
2022-12-03T19:20:43.482Z,3.20
2022-12-03T19:23:11.487Z,3.23
2022-12-03T19:25:39.395Z,3.22
2022-12-03T19:28:08.256Z,3.18
2022-12-03T19:30:36.348Z,3.13
2022-12-03T19:33:04.441Z,3.02
2022-12-03T19:35:34.193Z,3.08
2022-12-03T19:38:02.178Z,3.11
2022-12-03T19:40:32.172Z,3.14
2022-12-03T19:42:59.912Z,3.18
2022-12-03T19:45:27.761Z,3.12
2022-12-03T19:47:55.611Z,3.13
2022-12-03T19:50:23.885Z,3.16
2022-12-03T19:52:53.281Z,3.16
2022-12-03T19:55:21.109Z,3.19
2022-12-03T19:57:49.045Z,3.18
2022-12-03T20:00:17.759Z,3.14
2022-12-03T20:02:47.286Z,3.07
2022-12-03T20:05:15.309Z,3.06
2022-12-03T20:07:43.316Z,3.01
2022-12-03T20:10:12.883Z,2.93
2022-12-03T20:12:40.832Z,2.95
2022-12-03T20:15:09.218Z,3.02
2022-12-03T20:17:36.985Z,3.01
2022-12-03T20:20:08.366Z,3.05
2022-12-03T20:22:36.176Z,3.00
2022-12-03T20:25:05.061Z,3.03
2022-12-03T20:27:36.588Z,2.99
2022-12-03T20:30:06.534Z,2.96
2022-12-03T20:32:40.574Z,2.95
2022-12-03T20:35:11.705Z,3.00
2022-12-03T20:37:39.558Z,2.99
2022-12-03T20:40:08.843Z,3.00
2022-12-03T20:42:38.278Z,3.02
2022-12-03T20:45:07.055Z,3.08
2022-12-03T20:47:35.018Z,3.08
2022-12-03T20:50:03.206Z,2.99
2022-12-03T20:52:31.379Z,2.98
2022-12-03T20:54:59.355Z,3.00
2022-12-03T20:57:27.360Z,2.96
2022-12-03T20:59:56.999Z,2.99
2022-12-03T21:02:26.165Z,2.99
2022-12-03T21:04:54.760Z,3.03
2022-12-03T21:07:22.563Z,3.09
2022-12-03T21:09:53.684Z,3.01
2022-12-03T21:12:21.727Z,2.98
2022-12-03T21:14:50.668Z,3.03
2022-12-03T21:17:25.207Z,3.02
2022-12-03T21:19:57.378Z,3.05
2022-12-03T21:22:25.307Z,2.99
2022-12-03T21:24:53.095Z,2.93
2022-12-03T21:27:22.035Z,2.91
2022-12-03T21:29:50.157Z,2.92
2022-12-03T21:32:19.819Z,2.90
2022-12-03T21:34:47.709Z,2.90
2022-12-03T21:37:15.716Z,2.98
2022-12-03T21:39:59.204Z,3.00
2022-12-03T21:43:20.095Z,2.90
2022-12-03T21:45:50.583Z,2.91
2022-12-03T21:48:20.066Z,2.89
2022-12-03T21:51:04.360Z,2.87
2022-12-03T21:53:35.975Z,2.90
2022-12-03T21:56:09.287Z,2.98
2022-12-03T21:58:38.321Z,2.82
2022-12-03T22:01:12.948Z,2.81
2022-12-03T22:03:42.836Z,2.85
2022-12-03T22:06:11.599Z,2.89
2022-12-03T22:08:39.808Z,2.92
2022-12-03T22:11:09.277Z,2.91
2022-12-03T22:13:38.888Z,2.90
2022-12-03T22:16:08.970Z,2.92
2022-12-03T22:18:37.234Z,2.94
2022-12-03T22:21:07.507Z,2.98
2022-12-03T22:23:35.775Z,3.01
2022-12-03T22:26:05.594Z,2.88
2022-12-03T22:28:34.394Z,2.94
2022-12-03T22:31:06.975Z,2.90
2022-12-03T22:33:35.182Z,2.84
2022-12-03T22:36:04.912Z,2.82
2022-12-03T22:38:34.813Z,2.80
2022-12-03T22:41:06.318Z,2.85
2022-12-03T22:43:36.981Z,2.84
2022-12-03T22:46:07.115Z,2.79
2022-12-03T22:48:35.475Z,2.76
2022-12-03T22:51:03.830Z,2.82
2022-12-03T22:53:34.003Z,2.89
2022-12-03T22:56:03.457Z,2.93
2022-12-03T22:58:31.649Z,2.94
2022-12-03T23:01:02.912Z,2.98
2022-12-03T23:03:31.667Z,2.97
2022-12-03T23:05:59.465Z,2.98
2022-12-03T23:08:27.223Z,2.94
2022-12-03T23:10:57.415Z,2.85
2022-12-03T23:13:26.518Z,2.86
2022-12-03T23:15:54.267Z,2.91
2022-12-03T23:18:22.132Z,2.97
2022-12-03T23:20:52.829Z,3.02
2022-12-03T23:23:23.057Z,3.07
2022-12-03T23:25:57.586Z,3.06
2022-12-03T23:28:27.413Z,3.02
2022-12-03T23:30:55.618Z,2.97
2022-12-03T23:33:23.626Z,2.88
2022-12-03T23:35:51.644Z,2.81
2022-12-03T23:38:19.540Z,2.77
2022-12-03T23:40:48.435Z,2.82
2022-12-03T23:43:16.526Z,2.82
2022-12-03T23:45:45.764Z,2.80
2022-12-03T23:48:13.762Z,2.82
2022-12-03T23:50:42.361Z,2.82
2022-12-03T23:53:10.186Z,2.82
2022-12-03T23:55:40.621Z,2.81
2022-12-03T23:58:08.785Z,2.81
